sensor_id;sensor_type;location;lat;lon;timestamp;temperature;humidity
1351;DHT22;669;50.206;9.998;2024-01-15T00:00:10;-2.40;20.40
1351;DHT22;669;50.206;9.998;2024-01-15T00:02:38;-2.50;20.70
1351;DHT22;669;50.206;9.998;2024-01-15T00:05:06;-2.50;20.90
1351;DHT22;669;50.206;9.998;2024-01-15T00:07:35;-2.50;20.90
1351;DHT22;669;50.206;9.998;2024-01-15T00:10:03;-2.50;20.70
1351;DHT22;669;50.206;9.998;2024-01-15T00:12:33;-2.50;21.40
1351;DHT22;669;50.206;9.998;2024-01-15T00:15:02;-2.50;21.60
1351;DHT22;669;50.206;9.998;2024-01-15T00:17:30;-2.60;21.50
1351;DHT22;669;50.206;9.998;2024-01-15T00:19:58;-2.60;21.40
1351;DHT22;669;50.206;9.998;2024-01-15T00:22:26;-2.60;21.70
1351;DHT22;669;50.206;9.998;2024-01-15T00:24:54;-2.60;21.20
1351;DHT22;669;50.206;9.998;2024-01-15T00:27:22;-2.60;21.20
1351;DHT22;669;50.206;9.998;2024-01-15T00:29:51;-2.60;20.90
1351;DHT22;669;50.206;9.998;2024-01-15T00:32:21;-2.60;20.30
1351;DHT22;669;50.206;9.998;2024-01-15T00:34:49;-2.60;20.70
1351;DHT22;669;50.206;9.998;2024-01-15T00:37:17;-2.60;20.80
1351;DHT22;669;50.206;9.998;2024-01-15T00:39:45;-2.60;20.50
1351;DHT22;669;50.206;9.998;2024-01-15T00:42:13;-2.60;19.90
1351;DHT22;669;50.206;9.998;2024-01-15T00:44:42;-2.60;19.90
1351;DHT22;669;50.206;9.998;2024-01-15T00:47:11;-2.60;19.30
1351;DHT22;669;50.206;9.998;2024-01-15T00:49:39;-2.60;19.60
1351;DHT22;669;50.206;9.998;2024-01-15T00:52:07;-2.60;19.30
1351;DHT22;669;50.206;9.998;2024-01-15T00:54:35;-2.50;19.50
1351;DHT22;669;50.206;9.998;2024-01-15T00:57:04;-2.60;19.00
1351;DHT22;669;50.206;9.998;2024-01-15T00:59:32;-2.60;19.30
1351;DHT22;669;50.206;9.998;2024-01-15T01:02:00;-2.60;18.10
1351;DHT22;669;50.206;9.998;2024-01-15T01:04:30;-2.60;18.60
1351;DHT22;669;50.206;9.998;2024-01-15T01:06:58;-2.60;18.90
1351;DHT22;669;50.206;9.998;2024-01-15T01:09:26;-2.60;19.00
1351;DHT22;669;50.206;9.998;2024-01-15T01:11:56;-2.60;19.20
1351;DHT22;669;50.206;9.998;2024-01-15T01:14:24;-2.60;19.20
1351;DHT22;669;50.206;9.998;2024-01-15T01:16:52;-2.60;19.40
1351;DHT22;669;50.206;9.998;2024-01-15T01:19:20;-2.60;19.40
1351;DHT22;669;50.206;9.998;2024-01-15T01:21:50;-2.60;19.50
1351;DHT22;669;50.206;9.998;2024-01-15T01:24:18;-2.60;20.30
1351;DHT22;669;50.206;9.998;2024-01-15T01:26:46;-2.60;20.30
1351;DHT22;669;50.206;9.998;2024-01-15T01:29:14;-2.60;20.80
1351;DHT22;669;50.206;9.998;2024-01-15T01:31:43;-2.60;20.80
1351;DHT22;669;50.206;9.998;2024-01-15T01:34:14;-2.60;21.20
1351;DHT22;669;50.206;9.998;2024-01-15T01:36:43;-2.60;20.80
1351;DHT22;669;50.206;9.998;2024-01-15T01:39:13;-2.60;21.00
1351;DHT22;669;50.206;9.998;2024-01-15T01:41:41;-2.60;21.10
1351;DHT22;669;50.206;9.998;2024-01-15T01:44:09;-2.60;21.20
1351;DHT22;669;50.206;9.998;2024-01-15T01:46:37;-2.60;21.20
1351;DHT22;669;50.206;9.998;2024-01-15T01:49:07;-2.60;20.90
1351;DHT22;669;50.206;9.998;2024-01-15T01:51:37;-2.60;21.00
1351;DHT22;669;50.206;9.998;2024-01-15T01:54:07;-2.50;21.10
1351;DHT22;669;50.206;9.998;2024-01-15T01:56:37;-2.50;20.90
1351;DHT22;669;50.206;9.998;2024-01-15T01:59:06;-2.50;20.80
1351;DHT22;669;50.206;9.998;2024-01-15T02:01:35;-2.50;20.50
1351;DHT22;669;50.206;9.998;2024-01-15T02:04:04;-2.50;20.00
1351;DHT22;669;50.206;9.998;2024-01-15T02:06:33;-2.50;20.40
1351;DHT22;669;50.206;9.998;2024-01-15T02:09:01;-2.50;20.20
1351;DHT22;669;50.206;9.998;2024-01-15T02:11:29;-2.50;20.00
1351;DHT22;669;50.206;9.998;2024-01-15T02:13:59;-2.60;19.80
1351;DHT22;669;50.206;9.998;2024-01-15T02:16:27;-2.60;19.30
1351;DHT22;669;50.206;9.998;2024-01-15T02:18:55;-2.60;19.00
1351;DHT22;669;50.206;9.998;2024-01-15T02:21:23;-2.50;18.60
1351;DHT22;669;50.206;9.998;2024-01-15T02:23:54;-2.50;19.10
1351;DHT22;669;50.206;9.998;2024-01-15T02:26:22;-2.60;18.60
1351;DHT22;669;50.206;9.998;2024-01-15T02:28:51;-2.50;18.60
1351;DHT22;669;50.206;9.998;2024-01-15T02:31:19;-2.60;18.90
1351;DHT22;669;50.206;9.998;2024-01-15T02:33:47;-2.60;18.70
1351;DHT22;669;50.206;9.998;2024-01-15T02:36:15;-2.60;18.70
1351;DHT22;669;50.206;9.998;2024-01-15T02:38:43;-2.60;19.40
1351;DHT22;669;50.206;9.998;2024-01-15T02:41:13;-2.40;18.90
1351;DHT22;669;50.206;9.998;2024-01-15T02:43:41;-2.60;19.00
1351;DHT22;669;50.206;9.998;2024-01-15T02:46:09;-2.60;19.40
1351;DHT22;669;50.206;9.998;2024-01-15T02:48:37;-2.60;19.50
1351;DHT22;669;50.206;9.998;2024-01-15T02:51:05;-2.60;19.40
1351;DHT22;669;50.206;9.998;2024-01-15T02:53:33;-2.60;19.50
1351;DHT22;669;50.206;9.998;2024-01-15T02:56:01;-2.60;19.60
1351;DHT22;669;50.206;9.998;2024-01-15T02:58:30;-2.60;19.40
1351;DHT22;669;50.206;9.998;2024-01-15T03:00:58;-2.60;19.30
1351;DHT22;669;50.206;9.998;2024-01-15T03:03:26;-2.60;19.70
1351;DHT22;669;50.206;9.998;2024-01-15T03:05:55;-2.60;19.90
1351;DHT22;669;50.206;9.998;2024-01-15T03:08:23;-2.60;20.30
1351;DHT22;669;50.206;9.998;2024-01-15T03:10:51;-2.60;20.30
1351;DHT22;669;50.206;9.998;2024-01-15T03:13:19;-2.60;20.00
1351;DHT22;669;50.206;9.998;2024-01-15T03:15:48;-2.60;19.70
1351;DHT22;669;50.206;9.998;2024-01-15T03:18:16;-2.50;19.50
1351;DHT22;669;50.206;9.998;2024-01-15T03:20:44;-2.50;19.60
1351;DHT22;669;50.206;9.998;2024-01-15T03:23:12;-2.50;20.00
1351;DHT22;669;50.206;9.998;2024-01-15T03:25:40;-2.50;19.80
1351;DHT22;669;50.206;9.998;2024-01-15T03:28:08;-2.50;20.20
1351;DHT22;669;50.206;9.998;2024-01-15T03:30:36;-2.40;20.20
1351;DHT22;669;50.206;9.998;2024-01-15T03:33:06;-2.40;20.00
1351;DHT22;669;50.206;9.998;2024-01-15T03:35:34;-2.40;20.10
1351;DHT22;669;50.206;9.998;2024-01-15T03:38:02;-2.40;20.40
1351;DHT22;669;50.206;9.998;2024-01-15T03:40:30;-2.40;20.40
1351;DHT22;669;50.206;9.998;2024-01-15T03:42:58;-2.40;20.70
1351;DHT22;669;50.206;9.998;2024-01-15T03:45:26;-2.40;20.90
1351;DHT22;669;50.206;9.998;2024-01-15T03:47:54;-2.30;20.50
1351;DHT22;669;50.206;9.998;2024-01-15T03:50:23;-2.40;20.40
1351;DHT22;669;50.206;9.998;2024-01-15T03:52:51;-2.30;21.00
1351;DHT22;669;50.206;9.998;2024-01-15T03:55:19;-2.40;21.00
1351;DHT22;669;50.206;9.998;2024-01-15T03:57:47;-2.30;21.10
1351;DHT22;669;50.206;9.998;2024-01-15T04:00:16;-2.30;21.10
1351;DHT22;669;50.206;9.998;2024-01-15T04:02:44;-2.30;21.10
1351;DHT22;669;50.206;9.998;2024-01-15T04:05:12;-2.30;21.40
1351;DHT22;669;50.206;9.998;2024-01-15T04:07:42;-2.30;21.30
1351;DHT22;669;50.206;9.998;2024-01-15T04:10:10;-2.30;21.30
1351;DHT22;669;50.206;9.998;2024-01-15T04:12:38;-2.30;21.50
1351;DHT22;669;50.206;9.998;2024-01-15T04:15:06;-2.30;21.40
1351;DHT22;669;50.206;9.998;2024-01-15T04:17:34;-2.30;21.60
1351;DHT22;669;50.206;9.998;2024-01-15T04:20:03;-2.30;21.10
1351;DHT22;669;50.206;9.998;2024-01-15T04:22:32;-2.30;21.40
1351;DHT22;669;50.206;9.998;2024-01-15T04:25:01;-2.40;21.10
1351;DHT22;669;50.206;9.998;2024-01-15T04:27:29;-2.40;21.40
1351;DHT22;669;50.206;9.998;2024-01-15T04:29:57;-2.30;21.50
1351;DHT22;669;50.206;9.998;2024-01-15T04:32:25;-2.30;21.10
1351;DHT22;669;50.206;9.998;2024-01-15T04:34:53;-2.30;21.60
1351;DHT22;669;50.206;9.998;2024-01-15T04:37:21;-2.30;21.50
1351;DHT22;669;50.206;9.998;2024-01-15T04:39:49;-2.30;21.20
1351;DHT22;669;50.206;9.998;2024-01-15T04:42:21;-2.30;21.00
1351;DHT22;669;50.206;9.998;2024-01-15T04:44:49;-2.30;20.60
1351;DHT22;669;50.206;9.998;2024-01-15T04:47:17;-2.30;20.60
1351;DHT22;669;50.206;9.998;2024-01-15T04:49:45;-2.30;20.30
1351;DHT22;669;50.206;9.998;2024-01-15T04:52:13;-2.30;20.60
1351;DHT22;669;50.206;9.998;2024-01-15T04:54:41;-2.20;20.40
1351;DHT22;669;50.206;9.998;2024-01-15T04:57:09;-2.20;20.10
1351;DHT22;669;50.206;9.998;2024-01-15T04:59:38;-2.20;20.60
1351;DHT22;669;50.206;9.998;2024-01-15T05:02:06;-2.20;20.10
1351;DHT22;669;50.206;9.998;2024-01-15T05:04:35;-2.20;20.00
1351;DHT22;669;50.206;9.998;2024-01-15T05:07:03;-2.20;19.80
1351;DHT22;669;50.206;9.998;2024-01-15T05:09:31;-2.10;19.70
1351;DHT22;669;50.206;9.998;2024-01-15T05:11:59;-2.10;19.20
1351;DHT22;669;50.206;9.998;2024-01-15T05:14:27;-2.10;18.90
1351;DHT22;669;50.206;9.998;2024-01-15T05:16:56;-2.20;19.00
1351;DHT22;669;50.206;9.998;2024-01-15T05:19:24;-2.20;18.90
1351;DHT22;669;50.206;9.998;2024-01-15T05:21:52;-2.10;19.00
1351;DHT22;669;50.206;9.998;2024-01-15T05:24:20;-2.10;19.00
1351;DHT22;669;50.206;9.998;2024-01-15T05:26:48;-2.10;19.00
1351;DHT22;669;50.206;9.998;2024-01-15T05:29:16;-2.10;19.30
1351;DHT22;669;50.206;9.998;2024-01-15T05:31:45;-2.10;19.70
1351;DHT22;669;50.206;9.998;2024-01-15T05:34:14;-2.10;19.60
1351;DHT22;669;50.206;9.998;2024-01-15T05:36:42;-2.10;19.60
1351;DHT22;669;50.206;9.998;2024-01-15T05:39:10;-2.10;19.70
1351;DHT22;669;50.206;9.998;2024-01-15T05:41:38;-2.10;20.00
1351;DHT22;669;50.206;9.998;2024-01-15T05:44:06;-2.10;20.00
1351;DHT22;669;50.206;9.998;2024-01-15T05:46:34;-2.00;20.00
1351;DHT22;669;50.206;9.998;2024-01-15T05:49:02;-2.00;20.10
1351;DHT22;669;50.206;9.998;2024-01-15T05:51:31;-2.10;19.90
1351;DHT22;669;50.206;9.998;2024-01-15T05:53:59;-2.00;20.00
1351;DHT22;669;50.206;9.998;2024-01-15T05:56:27;-2.00;20.00
1351;DHT22;669;50.206;9.998;2024-01-15T05:58:55;-2.00;19.90
1351;DHT22;669;50.206;9.998;2024-01-15T06:01:23;-2.00;19.90
1351;DHT22;669;50.206;9.998;2024-01-15T06:03:52;-2.00;20.10
1351;DHT22;669;50.206;9.998;2024-01-15T06:06:20;-2.00;20.20
1351;DHT22;669;50.206;9.998;2024-01-15T06:08:49;-2.00;20.40
1351;DHT22;669;50.206;9.998;2024-01-15T06:11:17;-2.00;20.40
1351;DHT22;669;50.206;9.998;2024-01-15T06:13:45;-2.00;20.40
1351;DHT22;669;50.206;9.998;2024-01-15T06:16:14;-2.00;20.40
1351;DHT22;669;50.206;9.998;2024-01-15T06:18:43;-2.00;20.70
1351;DHT22;669;50.206;9.998;2024-01-15T06:21:11;-2.00;20.70
1351;DHT22;669;50.206;9.998;2024-01-15T06:23:41;-2.00;20.90
1351;DHT22;669;50.206;9.998;2024-01-15T06:26:12;-2.00;21.20
1351;DHT22;669;50.206;9.998;2024-01-15T06:28:40;-2.00;21.10
1351;DHT22;669;50.206;9.998;2024-01-15T06:31:08;-2.00;21.40
1351;DHT22;669;50.206;9.998;2024-01-15T06:33:37;-2.00;21.40
1351;DHT22;669;50.206;9.998;2024-01-15T06:36:06;-2.00;21.40
1351;DHT22;669;50.206;9.998;2024-01-15T06:38:34;-2.00;21.30
1351;DHT22;669;50.206;9.998;2024-01-15T06:41:03;-2.00;21.20
1351;DHT22;669;50.206;9.998;2024-01-15T06:43:32;-2.00;21.20
1351;DHT22;669;50.206;9.998;2024-01-15T06:46:00;-2.00;21.00
1351;DHT22;669;50.206;9.998;2024-01-15T06:48:33;-2.00;21.10
1351;DHT22;669;50.206;9.998;2024-01-15T06:51:01;-1.90;21.20
1351;DHT22;669;50.206;9.998;2024-01-15T06:53:29;-1.90;21.10
1351;DHT22;669;50.206;9.998;2024-01-15T06:55:57;-1.90;21.10
1351;DHT22;669;50.206;9.998;2024-01-15T06:58:25;-1.90;21.20
1351;DHT22;669;50.206;9.998;2024-01-15T07:00:54;-1.80;21.30
1351;DHT22;669;50.206;9.998;2024-01-15T07:03:22;-1.90;21.40
1351;DHT22;669;50.206;9.998;2024-01-15T07:05:50;-1.80;21.40
1351;DHT22;669;50.206;9.998;2024-01-15T07:08:18;-1.80;21.30
1351;DHT22;669;50.206;9.998;2024-01-15T07:10:46;-1.80;21.20
1351;DHT22;669;50.206;9.998;2024-01-15T07:13:14;-1.80;20.90
1351;DHT22;669;50.206;9.998;2024-01-15T07:15:42;-1.80;20.90
1351;DHT22;669;50.206;9.998;2024-01-15T07:18:11;-1.80;20.80
1351;DHT22;669;50.206;9.998;2024-01-15T07:20:39;-1.80;21.30
1351;DHT22;669;50.206;9.998;2024-01-15T07:23:07;-1.80;20.80
1351;DHT22;669;50.206;9.998;2024-01-15T07:25:35;-1.80;21.10
1351;DHT22;669;50.206;9.998;2024-01-15T07:28:04;-1.80;21.30
1351;DHT22;669;50.206;9.998;2024-01-15T07:30:32;-1.70;21.20
1351;DHT22;669;50.206;9.998;2024-01-15T07:33:00;-1.70;20.90
1351;DHT22;669;50.206;9.998;2024-01-15T07:35:31;-1.70;20.90
1351;DHT22;669;50.206;9.998;2024-01-15T07:37:59;-1.70;20.90
1351;DHT22;669;50.206;9.998;2024-01-15T07:40:27;-1.70;20.70
1351;DHT22;669;50.206;9.998;2024-01-15T07:42:55;-1.70;20.70
1351;DHT22;669;50.206;9.998;2024-01-15T07:45:23;-1.70;20.70
1351;DHT22;669;50.206;9.998;2024-01-15T07:47:51;-1.70;20.10
1351;DHT22;669;50.206;9.998;2024-01-15T07:50:19;-1.70;20.10
1351;DHT22;669;50.206;9.998;2024-01-15T07:52:49;-1.70;19.90
1351;DHT22;669;50.206;9.998;2024-01-15T07:55:16;-1.70;19.40
1351;DHT22;669;50.206;9.998;2024-01-15T07:57:44;-1.70;19.70
1351;DHT22;669;50.206;9.998;2024-01-15T08:00:24;-1.70;20.00
1351;DHT22;669;50.206;9.998;2024-01-15T08:02:53;-1.60;19.70
1351;DHT22;669;50.206;9.998;2024-01-15T08:05:20;-1.60;19.90
1351;DHT22;669;50.206;9.998;2024-01-15T08:07:50;-1.60;19.90
1351;DHT22;669;50.206;9.998;2024-01-15T08:10:21;-1.60;19.20
1351;DHT22;669;50.206;9.998;2024-01-15T08:12:49;-1.50;19.10
1351;DHT22;669;50.206;9.998;2024-01-15T08:15:17;-1.50;19.10
1351;DHT22;669;50.206;9.998;2024-01-15T08:17:45;-1.50;19.00
1351;DHT22;669;50.206;9.998;2024-01-15T08:20:13;-1.50;19.30
1351;DHT22;669;50.206;9.998;2024-01-15T08:22:42;-1.50;19.30
1351;DHT22;669;50.206;9.998;2024-01-15T08:25:12;-1.40;18.40
1351;DHT22;669;50.206;9.998;2024-01-15T08:27:40;-1.40;18.20
1351;DHT22;669;50.206;9.998;2024-01-15T08:30:10;-1.50;18.70
1351;DHT22;669;50.206;9.998;2024-01-15T08:32:38;-1.40;18.70
1351;DHT22;669;50.206;9.998;2024-01-15T08:35:09;-1.40;18.10
1351;DHT22;669;50.206;9.998;2024-01-15T08:37:38;-1.40;17.90
1351;DHT22;669;50.206;9.998;2024-01-15T08:40:06;-1.50;18.30
1351;DHT22;669;50.206;9.998;2024-01-15T08:42:36;-1.50;18.00
1351;DHT22;669;50.206;9.998;2024-01-15T08:45:04;-1.50;18.40
1351;DHT22;669;50.206;9.998;2024-01-15T08:47:32;-1.50;18.80
1351;DHT22;669;50.206;9.998;2024-01-15T08:50:01;-1.40;18.80
1351;DHT22;669;50.206;9.998;2024-01-15T08:52:30;-1.40;18.90
1351;DHT22;669;50.206;9.998;2024-01-15T08:54:58;-1.40;18.90
1351;DHT22;669;50.206;9.998;2024-01-15T08:57:26;-1.40;19.30
1351;DHT22;669;50.206;9.998;2024-01-15T08:59:55;-1.40;19.10
1351;DHT22;669;50.206;9.998;2024-01-15T09:02:23;-1.40;18.90
1351;DHT22;669;50.206;9.998;2024-01-15T09:04:51;-1.30;18.90
1351;DHT22;669;50.206;9.998;2024-01-15T09:07:19;-1.30;18.90
1351;DHT22;669;50.206;9.998;2024-01-15T09:09:47;-1.20;18.60
1351;DHT22;669;50.206;9.998;2024-01-15T09:12:15;-1.20;18.50
1351;DHT22;669;50.206;9.998;2024-01-15T09:14:45;-1.20;18.90
1351;DHT22;669;50.206;9.998;2024-01-15T09:17:14;-1.20;17.90
1351;DHT22;669;50.206;9.998;2024-01-15T09:19:42;-1.10;18.10
1351;DHT22;669;50.206;9.998;2024-01-15T09:22:12;-1.10;18.10
1351;DHT22;669;50.206;9.998;2024-01-15T09:24:41;-1.10;17.80
1351;DHT22;669;50.206;9.998;2024-01-15T09:27:09;-1.10;17.40
1351;DHT22;669;50.206;9.998;2024-01-15T09:29:37;-1.10;17.40
1351;DHT22;669;50.206;9.998;2024-01-15T09:32:06;-1.10;17.40
1351;DHT22;669;50.206;9.998;2024-01-15T09:34:36;-1.00;17.50
1351;DHT22;669;50.206;9.998;2024-01-15T09:37:04;-1.00;17.50
1351;DHT22;669;50.206;9.998;2024-01-15T09:39:32;-1.00;17.50
1351;DHT22;669;50.206;9.998;2024-01-15T09:42:01;-1.10;17.40
1351;DHT22;669;50.206;9.998;2024-01-15T09:44:29;-1.00;17.50
1351;DHT22;669;50.206;9.998;2024-01-15T09:46:58;-1.00;17.90
1351;DHT22;669;50.206;9.998;2024-01-15T09:49:27;-0.90;17.60
1351;DHT22;669;50.206;9.998;2024-01-15T09:51:58;-0.90;17.60
1351;DHT22;669;50.206;9.998;2024-01-15T09:54:37;-0.90;17.10
1351;DHT22;669;50.206;9.998;2024-01-15T09:57:07;-0.90;17.60
1351;DHT22;669;50.206;9.998;2024-01-15T09:59:36;-0.90;17.60
1351;DHT22;669;50.206;9.998;2024-01-15T10:02:06;-0.90;17.60
1351;DHT22;669;50.206;9.998;2024-01-15T10:04:34;-0.90;17.60
1351;DHT22;669;50.206;9.998;2024-01-15T10:07:05;-0.80;18.20
1351;DHT22;669;50.206;9.998;2024-01-15T10:09:34;-0.80;17.90
1351;DHT22;669;50.206;9.998;2024-01-15T10:12:04;-0.70;17.70
1351;DHT22;669;50.206;9.998;2024-01-15T10:14:32;-0.60;17.20
1351;DHT22;669;50.206;9.998;2024-01-15T10:17:00;-0.60;17.30
1351;DHT22;669;50.206;9.998;2024-01-15T10:19:28;-0.50;18.00
1351;DHT22;669;50.206;9.998;2024-01-15T10:21:56;-0.50;16.70
1351;DHT22;669;50.206;9.998;2024-01-15T10:24:25;-0.40;16.40
1351;DHT22;669;50.206;9.998;2024-01-15T10:27:05;-0.40;16.10
1351;DHT22;669;50.206;9.998;2024-01-15T10:29:33;-0.40;15.80
1351;DHT22;669;50.206;9.998;2024-01-15T10:32:01;-0.40;15.80
1351;DHT22;669;50.206;9.998;2024-01-15T10:34:30;-0.40;15.60
1351;DHT22;669;50.206;9.998;2024-01-15T10:36:58;-0.50;15.40
1351;DHT22;669;50.206;9.998;2024-01-15T10:39:28;-0.50;16.10
1351;DHT22;669;50.206;9.998;2024-01-15T10:41:57;-0.50;16.00
1351;DHT22;669;50.206;9.998;2024-01-15T10:44:25;-0.50;16.60
1351;DHT22;669;50.206;9.998;2024-01-15T10:46:54;-0.50;16.40
1351;DHT22;669;50.206;9.998;2024-01-15T10:49:23;-0.50;16.80
1351;DHT22;669;50.206;9.998;2024-01-15T10:51:58;-0.60;16.60
1351;DHT22;669;50.206;9.998;2024-01-15T10:54:29;-0.60;17.30
1351;DHT22;669;50.206;9.998;2024-01-15T10:56:57;-0.60;17.70
1351;DHT22;669;50.206;9.998;2024-01-15T10:59:25;-0.60;17.70
1351;DHT22;669;50.206;9.998;2024-01-15T11:01:53;-0.60;17.70
1351;DHT22;669;50.206;9.998;2024-01-15T11:04:22;-0.60;17.90
1351;DHT22;669;50.206;9.998;2024-01-15T11:06:55;-0.60;18.00
1351;DHT22;669;50.206;9.998;2024-01-15T11:09:24;-0.60;18.90
1351;DHT22;669;50.206;9.998;2024-01-15T11:12:07;-0.60;18.00
1351;DHT22;669;50.206;9.998;2024-01-15T11:14:39;-0.60;18.00
1351;DHT22;669;50.206;9.998;2024-01-15T11:17:07;-0.60;18.20
1351;DHT22;669;50.206;9.998;2024-01-15T11:19:37;-0.60;18.50
1351;DHT22;669;50.206;9.998;2024-01-15T11:22:08;-0.50;18.30
1351;DHT22;669;50.206;9.998;2024-01-15T11:24:38;-0.40;17.80
1351;DHT22;669;50.206;9.998;2024-01-15T11:27:08;-0.50;17.80
1351;DHT22;669;50.206;9.998;2024-01-15T11:29:37;-0.40;17.90
1351;DHT22;669;50.206;9.998;2024-01-15T11:32:06;-0.40;17.90
1351;DHT22;669;50.206;9.998;2024-01-15T11:34:55;-0.40;17.90
1351;DHT22;669;50.206;9.998;2024-01-15T11:37:27;-0.40;17.90
1351;DHT22;669;50.206;9.998;2024-01-15T11:39:56;-0.30;17.90
1351;DHT22;669;50.206;9.998;2024-01-15T11:42:30;-0.30;17.60
1351;DHT22;669;50.206;9.998;2024-01-15T11:44:58;-0.30;17.90
1351;DHT22;669;50.206;9.998;2024-01-15T11:48:00;-0.20;16.90
1351;DHT22;669;50.206;9.998;2024-01-15T11:50:34;-0.10;16.70
1351;DHT22;669;50.206;9.998;2024-01-15T11:53:03;0.10;16.70
1351;DHT22;669;50.206;9.998;2024-01-15T11:55:39;0.20;15.90
1351;DHT22;669;50.206;9.998;2024-01-15T11:58:10;0.30;14.40
1351;DHT22;669;50.206;9.998;2024-01-15T12:00:43;0.40;14.50
1351;DHT22;669;50.206;9.998;2024-01-15T12:03:11;0.50;14.00
1351;DHT22;669;50.206;9.998;2024-01-15T12:05:40;0.70;13.40
1351;DHT22;669;50.206;9.998;2024-01-15T12:08:09;0.70;12.90
1351;DHT22;669;50.206;9.998;2024-01-15T12:10:39;0.80;12.10
1351;DHT22;669;50.206;9.998;2024-01-15T12:13:12;0.90;11.80
1351;DHT22;669;50.206;9.998;2024-01-15T12:15:41;0.90;10.80
1351;DHT22;669;50.206;9.998;2024-01-15T12:18:12;0.90;10.30
1351;DHT22;669;50.206;9.998;2024-01-15T12:20:42;0.90;10.30
1351;DHT22;669;50.206;9.998;2024-01-15T12:23:11;1.00;9.90
1351;DHT22;669;50.206;9.998;2024-01-15T12:25:40;1.00;9.40
1351;DHT22;669;50.206;9.998;2024-01-15T12:28:08;0.90;8.30
1351;DHT22;669;50.206;9.998;2024-01-15T12:30:38;0.90;8.90
1351;DHT22;669;50.206;9.998;2024-01-15T12:33:08;0.90;9.00
1351;DHT22;669;50.206;9.998;2024-01-15T12:35:37;0.90;8.80
1351;DHT22;669;50.206;9.998;2024-01-15T12:38:05;0.90;9.10
1351;DHT22;669;50.206;9.998;2024-01-15T12:40:33;0.90;8.70
1351;DHT22;669;50.206;9.998;2024-01-15T12:43:05;0.90;8.50
1351;DHT22;669;50.206;9.998;2024-01-15T12:45:33;0.90;7.90
1351;DHT22;669;50.206;9.998;2024-01-15T12:48:04;0.80;8.20
1351;DHT22;669;50.206;9.998;2024-01-15T12:50:33;0.90;9.40
1351;DHT22;669;50.206;9.998;2024-01-15T12:53:03;0.90;8.90
1351;DHT22;669;50.206;9.998;2024-01-15T12:55:31;0.80;9.40
1351;DHT22;669;50.206;9.998;2024-01-15T12:58:01;0.80;9.10
1351;DHT22;669;50.206;9.998;2024-01-15T13:00:29;0.90;9.20
1351;DHT22;669;50.206;9.998;2024-01-15T13:02:57;0.90;9.90
1351;DHT22;669;50.206;9.998;2024-01-15T13:05:26;0.80;10.00
1351;DHT22;669;50.206;9.998;2024-01-15T13:07:55;0.80;9.80
1351;DHT22;669;50.206;9.998;2024-01-15T13:10:23;0.80;10.50
1351;DHT22;669;50.206;9.998;2024-01-15T13:12:52;0.70;9.90
1351;DHT22;669;50.206;9.998;2024-01-15T13:15:20;0.70;10.70
1351;DHT22;669;50.206;9.998;2024-01-15T13:17:48;0.60;11.00
1351;DHT22;669;50.206;9.998;2024-01-15T13:20:16;0.50;12.10
1351;DHT22;669;50.206;9.998;2024-01-15T13:22:46;0.40;13.90
1351;DHT22;669;50.206;9.998;2024-01-15T13:25:14;0.30;15.90
1351;DHT22;669;50.206;9.998;2024-01-15T13:27:43;0.20;17.10
1351;DHT22;669;50.206;9.998;2024-01-15T13:30:12;0.20;18.80
1351;DHT22;669;50.206;9.998;2024-01-15T13:32:40;0.10;19.90
1351;DHT22;669;50.206;9.998;2024-01-15T13:35:09;0.00;20.50
1351;DHT22;669;50.206;9.998;2024-01-15T13:37:40;0.00;21.30
1351;DHT22;669;50.206;9.998;2024-01-15T13:40:11;0.00;21.90
1351;DHT22;669;50.206;9.998;2024-01-15T13:42:44;0.00;22.60
1351;DHT22;669;50.206;9.998;2024-01-15T13:45:13;-0.10;23.80
1351;DHT22;669;50.206;9.998;2024-01-15T13:47:41;-0.10;23.80
1351;DHT22;669;50.206;9.998;2024-01-15T13:50:10;-0.10;24.30
1351;DHT22;669;50.206;9.998;2024-01-15T13:52:38;-0.10;23.90
1351;DHT22;669;50.206;9.998;2024-01-15T13:55:06;0.00;23.80
1351;DHT22;669;50.206;9.998;2024-01-15T13:57:37;0.00;23.70
1351;DHT22;669;50.206;9.998;2024-01-15T14:00:06;0.00;23.40
1351;DHT22;669;50.206;9.998;2024-01-15T14:02:39;0.00;23.40
1351;DHT22;669;50.206;9.998;2024-01-15T14:05:07;0.00;23.60
1351;DHT22;669;50.206;9.998;2024-01-15T14:07:35;0.00;23.60
1351;DHT22;669;50.206;9.998;2024-01-15T14:10:04;0.10;24.00
1351;DHT22;669;50.206;9.998;2024-01-15T14:12:33;0.10;24.30
1351;DHT22;669;50.206;9.998;2024-01-15T14:15:04;0.10;24.30
1351;DHT22;669;50.206;9.998;2024-01-15T14:17:32;0.10;25.40
1351;DHT22;669;50.206;9.998;2024-01-15T14:20:01;0.00;25.70
1351;DHT22;669;50.206;9.998;2024-01-15T14:22:32;0.00;25.40
1351;DHT22;669;50.206;9.998;2024-01-15T14:24:59;0.00;25.50
1351;DHT22;669;50.206;9.998;2024-01-15T14:27:27;0.00;25.00
1351;DHT22;669;50.206;9.998;2024-01-15T14:29:55;-0.10;25.50
1351;DHT22;669;50.206;9.998;2024-01-15T14:32:25;-0.10;25.60
1351;DHT22;669;50.206;9.998;2024-01-15T14:34:54;-0.10;25.60
1351;DHT22;669;50.206;9.998;2024-01-15T14:37:23;-0.10;26.20
1351;DHT22;669;50.206;9.998;2024-01-15T14:39:51;0.00;25.70
1351;DHT22;669;50.206;9.998;2024-01-15T14:42:19;0.00;25.70
1351;DHT22;669;50.206;9.998;2024-01-15T14:44:47;0.00;25.00
1351;DHT22;669;50.206;9.998;2024-01-15T14:47:15;0.00;25.00
1351;DHT22;669;50.206;9.998;2024-01-15T14:49:45;0.10;23.70
1351;DHT22;669;50.206;9.998;2024-01-15T14:52:13;0.10;23.60
1351;DHT22;669;50.206;9.998;2024-01-15T14:54:41;0.10;23.20
1351;DHT22;669;50.206;9.998;2024-01-15T14:57:09;0.10;22.90
1351;DHT22;669;50.206;9.998;2024-01-15T14:59:37;0.10;22.50
1351;DHT22;669;50.206;9.998;2024-01-15T15:02:05;0.10;22.50
1351;DHT22;669;50.206;9.998;2024-01-15T15:04:33;0.10;22.00
1351;DHT22;669;50.206;9.998;2024-01-15T15:07:03;0.10;22.00
1351;DHT22;669;50.206;9.998;2024-01-15T15:09:33;0.10;22.00
1351;DHT22;669;50.206;9.998;2024-01-15T15:12:01;0.10;22.30
1351;DHT22;669;50.206;9.998;2024-01-15T15:14:30;0.10;22.00
1351;DHT22;669;50.206;9.998;2024-01-15T15:17:17;0.10;22.00
1351;DHT22;669;50.206;9.998;2024-01-15T15:19:45;0.10;21.60
1351;DHT22;669;50.206;9.998;2024-01-15T15:22:14;0.10;21.80
1351;DHT22;669;50.206;9.998;2024-01-15T15:24:42;0.10;21.60
1351;DHT22;669;50.206;9.998;2024-01-15T15:27:11;0.10;21.60
1351;DHT22;669;50.206;9.998;2024-01-15T15:29:38;0.10;21.10
1351;DHT22;669;50.206;9.998;2024-01-15T15:32:07;0.00;20.80
1351;DHT22;669;50.206;9.998;2024-01-15T15:34:35;0.00;20.60
1351;DHT22;669;50.206;9.998;2024-01-15T15:37:04;0.00;20.60
1351;DHT22;669;50.206;9.998;2024-01-15T15:39:34;0.00;20.80
1351;DHT22;669;50.206;9.998;2024-01-15T15:42:02;0.00;20.70
1351;DHT22;669;50.206;9.998;2024-01-15T15:44:30;0.00;21.00
1351;DHT22;669;50.206;9.998;2024-01-15T15:46:58;-0.10;21.20
1351;DHT22;669;50.206;9.998;2024-01-15T15:49:26;0.00;21.10
1351;DHT22;669;50.206;9.998;2024-01-15T15:51:55;0.00;21.00
1351;DHT22;669;50.206;9.998;2024-01-15T15:54:23;-0.10;21.00
1351;DHT22;669;50.206;9.998;2024-01-15T15:56:52;0.00;21.00
1351;DHT22;669;50.206;9.998;2024-01-15T15:59:21;-0.10;20.80
1351;DHT22;669;50.206;9.998;2024-01-15T16:01:51;-0.10;21.00
1351;DHT22;669;50.206;9.998;2024-01-15T16:04:19;-0.10;21.00
1351;DHT22;669;50.206;9.998;2024-01-15T16:06:48;-0.10;20.60
1351;DHT22;669;50.206;9.998;2024-01-15T16:09:15;-0.10;20.60
1351;DHT22;669;50.206;9.998;2024-01-15T16:11:43;-0.10;20.70
1351;DHT22;669;50.206;9.998;2024-01-15T16:14:13;-0.10;20.80
1351;DHT22;669;50.206;9.998;2024-01-15T16:16:41;-0.10;21.00
1351;DHT22;669;50.206;9.998;2024-01-15T16:19:29;-0.10;21.20
1351;DHT22;669;50.206;9.998;2024-01-15T16:22:17;-0.10;21.20
1351;DHT22;669;50.206;9.998;2024-01-15T16:25:06;-0.10;21.10
1351;DHT22;669;50.206;9.998;2024-01-15T16:27:35;-0.10;21.00
1351;DHT22;669;50.206;9.998;2024-01-15T16:30:07;-0.10;21.10
1351;DHT22;669;50.206;9.998;2024-01-15T16:32:51;-0.10;21.20